createdAt,value
2024-02-23T00:01:17.266Z,-27.83
2024-02-23T00:06:20.188Z,-27.82
2024-02-23T00:11:23.466Z,-27.93
2024-02-23T00:16:30.806Z,-27.96
2024-02-23T00:21:33.677Z,-28.06
2024-02-23T00:26:36.268Z,-28.11
2024-02-23T00:31:42.436Z,-28.11
2024-02-23T00:36:46.337Z,-28.14
2024-02-23T00:41:49.149Z,-28.20
2024-02-23T00:46:53.092Z,-28.22
2024-02-23T00:51:57.084Z,-28.23
2024-02-23T00:56:59.951Z,-28.38
2024-02-23T01:02:03.393Z,-28.29
2024-02-23T01:07:06.373Z,-28.30
2024-02-23T01:12:10.405Z,-28.28
2024-02-23T01:17:14.940Z,-28.24
2024-02-23T01:22:18.628Z,-28.30
2024-02-23T01:27:25.122Z,-28.20
2024-02-23T01:32:30.682Z,-28.18
2024-02-23T01:37:34.168Z,-28.26
2024-02-23T01:42:39.604Z,-28.35
2024-02-23T01:47:44.893Z,-28.42
2024-02-23T01:52:48.245Z,-28.45
2024-02-23T01:57:51.696Z,-28.37
2024-02-23T02:02:56.564Z,-28.29
2024-02-23T02:08:02.413Z,-28.22
2024-02-23T02:13:07.213Z,-28.11
2024-02-23T02:18:11.394Z,-27.94
2024-02-23T02:23:15.097Z,-27.77
2024-02-23T02:28:19.039Z,-27.53
2024-02-23T02:33:23.470Z,-27.25
2024-02-23T02:38:26.405Z,-26.93
2024-02-23T02:43:29.957Z,-26.64
2024-02-23T02:48:38.167Z,-26.34
2024-02-23T02:53:41.347Z,-26.06
2024-02-23T02:58:45.560Z,-25.78
2024-02-23T03:03:49.159Z,-25.57
2024-02-23T03:08:51.955Z,-25.46
2024-02-23T03:13:55.449Z,-25.38
2024-02-23T03:19:04.490Z,-25.39
2024-02-23T03:24:07.419Z,-25.20
2024-02-23T03:29:12.871Z,-25.05
2024-02-23T03:34:16.678Z,-24.91
2024-02-23T03:39:20.034Z,-24.74
2024-02-23T03:44:22.985Z,-24.56
2024-02-23T03:49:27.603Z,-24.41
2024-02-23T03:54:30.863Z,-24.17
2024-02-23T03:59:34.881Z,-23.90
2024-02-23T04:04:39.805Z,-23.63
2024-02-23T04:09:42.922Z,-23.32
2024-02-23T04:14:46.985Z,-23.13
2024-02-23T04:19:49.707Z,-22.96
2024-02-23T04:24:52.518Z,-22.84
2024-02-23T04:29:56.755Z,-22.66
2024-02-23T04:35:00.202Z,-22.48
2024-02-23T04:40:03.952Z,-22.22
2024-02-23T04:45:09.160Z,-22.07
2024-02-23T04:50:11.943Z,-21.98
2024-02-23T04:55:16.049Z,-21.81
2024-02-23T05:00:21.178Z,-21.67
2024-02-23T05:05:24.267Z,-21.49
2024-02-23T05:10:27.013Z,-21.38
2024-02-23T05:15:31.861Z,-21.37
2024-02-23T05:20:35.119Z,-21.29
2024-02-23T05:25:38.005Z,-21.26
2024-02-23T05:30:42.407Z,-21.40
2024-02-23T05:35:47.194Z,-21.39
2024-02-23T05:40:50.241Z,-21.38
2024-02-23T05:45:59.035Z,-21.33
2024-02-23T05:51:02.135Z,-21.21
2024-02-23T05:56:05.891Z,-21.15
2024-02-23T06:01:10.381Z,-21.09
2024-02-23T06:06:13.389Z,-21.10
2024-02-23T06:11:17.059Z,-21.02
2024-02-23T06:16:21.473Z,-20.94
2024-02-23T06:21:24.384Z,-20.89
2024-02-23T06:26:27.198Z,-20.83
2024-02-23T06:31:32.682Z,-20.71
2024-02-23T06:36:35.746Z,-20.55
2024-02-23T06:41:43.896Z,-20.36
2024-02-23T06:46:47.373Z,-20.24
2024-02-23T06:51:50.259Z,-20.14
2024-02-23T06:56:54.085Z,-20.00
2024-02-23T07:01:58.804Z,-19.90
2024-02-23T07:07:08.098Z,-19.67
2024-02-23T07:12:13.116Z,-19.52
2024-02-23T07:17:21.056Z,-19.37
2024-02-23T07:22:24.788Z,-19.28
2024-02-23T07:27:27.968Z,-19.16
2024-02-23T07:32:32.928Z,-18.96
2024-02-23T07:37:36.293Z,-18.78
2024-02-23T07:42:39.228Z,-18.60
2024-02-23T07:47:44.148Z,-18.54
2024-02-23T07:52:47.611Z,-18.45
2024-02-23T07:57:51.018Z,-18.27
2024-02-23T08:02:58.624Z,-18.19
2024-02-23T08:08:02.619Z,-18.13
2024-02-23T08:13:08.377Z,-18.07
2024-02-23T08:18:12.028Z,-17.91
2024-02-23T08:23:17.082Z,-17.85
2024-02-23T08:28:20.227Z,-17.72
2024-02-23T08:33:24.942Z,-17.68
2024-02-23T08:38:28.473Z,-17.66
2024-02-23T08:43:31.494Z,-17.64
2024-02-23T08:48:36.058Z,-17.59
2024-02-23T08:53:39.548Z,-17.51
2024-02-23T08:58:42.886Z,-17.42
2024-02-23T09:03:47.110Z,-17.38
2024-02-23T09:08:50.075Z,-17.30
2024-02-23T09:13:53.420Z,-17.30
2024-02-23T09:18:57.949Z,-17.35
2024-02-23T09:24:01.258Z,-17.37
2024-02-23T09:29:13.385Z,-17.34
2024-02-23T09:34:18.039Z,-17.32
2024-02-23T09:39:28.429Z,-17.33
2024-02-23T09:44:36.104Z,-17.45
2024-02-23T09:49:42.753Z,-17.56
2024-02-23T09:54:46.062Z,-17.52
2024-02-23T09:59:51.480Z,-17.57
2024-02-23T10:04:55.937Z,-17.54
2024-02-23T10:10:00.630Z,-17.47
2024-02-23T10:15:06.063Z,-17.55
2024-02-23T10:20:09.359Z,-17.66
2024-02-23T10:25:12.274Z,-17.71
2024-02-23T10:30:18.991Z,-17.75
2024-02-23T10:35:23.432Z,-17.83
2024-02-23T10:40:28.322Z,-17.93
2024-02-23T10:45:32.964Z,-18.09
2024-02-23T10:50:36.578Z,-18.28
2024-02-23T10:55:40.131Z,-18.46
2024-02-23T11:00:44.437Z,-18.59
2024-02-23T11:05:51.008Z,-18.76
2024-02-23T11:10:54.377Z,-18.80
2024-02-23T11:16:04.788Z,-19.03
2024-02-23T11:21:11.361Z,-19.34
2024-02-23T11:26:14.907Z,-19.58
2024-02-23T11:31:22.052Z,-19.69
2024-02-23T11:36:31.873Z,-19.85
2024-02-23T11:41:34.795Z,-19.90
2024-02-23T11:46:38.819Z,-20.05
2024-02-23T11:51:43.599Z,-20.16
2024-02-23T11:56:49.178Z,-20.24
2024-02-23T12:01:52.714Z,-20.22
2024-02-23T12:06:57.277Z,-20.45
2024-02-23T12:12:00.643Z,-20.41
2024-02-23T12:17:05.439Z,-20.50
2024-02-23T12:22:09.323Z,-20.37
2024-02-23T12:27:13.071Z,-20.31
2024-02-23T12:32:17.445Z,-20.46
2024-02-23T12:37:21.660Z,-20.53
2024-02-23T12:42:25.120Z,-20.43
2024-02-23T12:47:29.317Z,-20.52
2024-02-23T12:52:32.741Z,-20.53
2024-02-23T12:57:36.155Z,-20.67
2024-02-23T13:02:40.355Z,-20.78
2024-02-23T13:07:43.804Z,-20.74
2024-02-23T13:12:46.782Z,-20.82
2024-02-23T13:17:51.030Z,-20.90
2024-02-23T13:22:54.806Z,-20.90
2024-02-23T13:28:01.300Z,-20.85
2024-02-23T13:33:07.168Z,-20.84
2024-02-23T13:38:10.611Z,-20.84
2024-02-23T13:43:14.354Z,-20.69
2024-02-23T13:48:20.763Z,-20.68
2024-02-23T13:53:24.389Z,-20.72
2024-02-23T13:58:29.988Z,-20.76
2024-02-23T14:03:33.830Z,-20.78
2024-02-23T14:08:38.900Z,-20.67
2024-02-23T14:13:42.249Z,-20.50
2024-02-23T14:18:46.383Z,-20.42
2024-02-23T14:23:49.475Z,-20.44
2024-02-23T14:28:52.559Z,-20.50
2024-02-23T14:33:57.250Z,-20.59
2024-02-23T14:39:00.317Z,-20.73
2024-02-23T14:44:03.420Z,-20.73
2024-02-23T14:49:07.320Z,-20.71
2024-02-23T14:54:10.568Z,-20.66
2024-02-23T14:59:13.665Z,-20.65
2024-02-23T15:04:19.026Z,-20.63
2024-02-23T15:09:22.067Z,-20.61
2024-02-23T15:14:25.606Z,-20.64
2024-02-23T15:19:29.363Z,-20.61
2024-02-23T15:24:33.952Z,-20.61
2024-02-23T15:29:37.271Z,-20.64
2024-02-23T15:34:43.105Z,-20.74
2024-02-23T15:39:48.968Z,-20.75
2024-02-23T15:44:53.071Z,-20.82
2024-02-23T15:50:16.665Z,-20.91
2024-02-23T15:55:19.664Z,-21.01
2024-02-23T16:00:23.724Z,-21.11
2024-02-23T16:05:27.238Z,-21.23
2024-02-23T16:10:31.018Z,-21.39
2024-02-23T16:15:34.725Z,-21.49
2024-02-23T16:20:43.973Z,-21.62
2024-02-23T16:25:47.203Z,-21.79
2024-02-23T16:30:53.033Z,-21.91
2024-02-23T16:36:00.847Z,-21.98
2024-02-23T16:41:04.422Z,-22.05
2024-02-23T16:46:08.453Z,-22.11
2024-02-23T16:51:11.650Z,-22.11
2024-02-23T16:56:14.637Z,-22.11
2024-02-23T17:01:19.057Z,-22.29
2024-02-23T17:06:22.060Z,-22.13
2024-02-23T17:11:26.017Z,-22.24
2024-02-23T17:16:30.323Z,-22.28
2024-02-23T17:21:33.262Z,-22.34
2024-02-23T17:26:36.333Z,-22.41
2024-02-23T17:31:40.287Z,-22.41
2024-02-23T17:36:44.913Z,-22.32
2024-02-23T17:41:47.941Z,-22.17
2024-02-23T17:46:51.286Z,-22.07
2024-02-23T17:51:57.438Z,-22.07
2024-02-23T17:57:00.369Z,-22.15
2024-02-23T18:02:03.602Z,-22.22
2024-02-23T18:07:06.774Z,-22.26
2024-02-23T18:12:10.000Z,-22.26
2024-02-23T18:17:13.700Z,-22.29
2024-02-23T18:22:17.281Z,-22.36
2024-02-23T18:27:21.238Z,-22.26
2024-02-23T18:32:24.461Z,-22.25
2024-02-23T18:37:27.474Z,-22.30
2024-02-23T18:42:30.300Z,-22.39
2024-02-23T18:47:33.945Z,-22.44
2024-02-23T18:52:37.820Z,-22.48
2024-02-23T18:57:41.113Z,-22.49
2024-02-23T19:02:48.348Z,-22.30
2024-02-23T19:07:51.311Z,-22.15
2024-02-23T19:12:54.412Z,-22.06
2024-02-23T19:17:58.197Z,-22.12
2024-02-23T19:23:02.025Z,-22.05
2024-02-23T19:28:05.704Z,-22.05
2024-02-23T19:33:09.602Z,-22.07
2024-02-23T19:38:12.728Z,-22.15
2024-02-23T19:43:15.712Z,-22.22
2024-02-23T19:48:19.919Z,-22.31
2024-02-23T19:53:22.887Z,-22.42
2024-02-23T19:58:25.928Z,-22.49
2024-02-23T20:03:29.428Z,-22.66
2024-02-23T20:08:32.833Z,-22.77
2024-02-23T20:13:36.818Z,-22.95
2024-02-23T20:18:40.244Z,-22.95
2024-02-23T20:23:43.414Z,-22.88
2024-02-23T20:28:46.451Z,-22.89
2024-02-23T20:33:50.474Z,-22.90
2024-02-23T20:38:53.520Z,-22.90
2024-02-23T20:43:56.534Z,-22.91
2024-02-23T20:49:01.782Z,-22.90
2024-02-23T20:54:05.574Z,-22.90
2024-02-23T20:59:08.644Z,-22.87
2024-02-23T21:04:12.545Z,-22.79
2024-02-23T21:09:17.551Z,-22.77
2024-02-23T21:14:20.395Z,-22.83
2024-02-23T21:19:23.672Z,-22.92
2024-02-23T21:24:26.678Z,-23.02
2024-02-23T21:29:30.074Z,-23.12
2024-02-23T21:34:33.408Z,-23.18
2024-02-23T21:39:37.609Z,-23.29
2024-02-23T21:44:41.221Z,-23.45
2024-02-23T21:49:45.232Z,-23.56
2024-02-23T21:54:48.734Z,-23.70
2024-02-23T21:59:56.219Z,-23.85
2024-02-23T22:04:59.313Z,-24.04
2024-02-23T22:10:02.087Z,-24.25
2024-02-23T22:15:06.332Z,-24.46
2024-02-23T22:20:09.745Z,-24.55
2024-02-23T22:25:15.058Z,-24.67
2024-02-23T22:30:18.679Z,-24.78
2024-02-23T22:35:24.723Z,-24.91
2024-02-23T22:40:27.928Z,-25.02
2024-02-23T22:45:32.135Z,-25.10
2024-02-23T22:50:35.086Z,-25.20
2024-02-23T22:55:37.986Z,-25.26
2024-02-23T23:00:43.070Z,-25.28
2024-02-23T23:05:46.415Z,-25.35
2024-02-23T23:10:50.188Z,-25.46
2024-02-23T23:15:53.365Z,-25.43
2024-02-23T23:20:56.223Z,-25.41
2024-02-23T23:25:59.155Z,-25.49
2024-02-23T23:31:02.320Z,-25.56
2024-02-23T23:36:05.675Z,-25.52
2024-02-23T23:41:08.756Z,-25.70
2024-02-23T23:46:12.087Z,-25.49
2024-02-23T23:51:15.358Z,-25.56
2024-02-23T23:56:18.864Z,-25.46
